VIDP/DEL METAR and TAF weather

Enter ICAO airport designator
Station Type Date Time Source
VIDP METAR 2020/08/14 16:00 UTC NOAA

VIDP 141600Z 06003KT 2500 BR SCT030 SCT100 29/27 Q0997 NOSIG


Station Type Date Time Source
VIDP Decoded METAR 2020/08/14 16:00 UTC NOAA

New Delhi / Palam, India (VIDP) 28-34N 077-07E 233M
Aug 14, 2020 - 12:00 PM EDT / 2020.08.14 1600 UTC
Wind: from the ENE (060 degrees) at 3 MPH (3 KT):0
Visibility: 1 mile(s):0
Sky conditions: partly cloudy
Weather: mist
Temperature: 84 F (29 C)
Dew Point: 80 F (27 C)
Relative Humidity: 88%
Pressure (altimeter): 29.44 in. Hg (0997 hPa)
ob: VIDP 141600Z 06003KT 2500 BR SCT030 SCT100 29/27 Q0997 NOSIG
cycle: 16

Station Type Date Time Source
VIDP TAF 2020/08/14 12:03 UTC NOAA

TAF VIDP 141100Z 1412/1518 09008KT 3500 HZ SCT025 BKN080
TEMPO 1412/1415 15010G20KT 1000 TSRA FEW035CB OVC080
BECMG 1417/1419 2500 BR RA
BECMG 1421/1503 1000 TSRA FEW035CB
BECMG 1504/1506 15008KT 2500 BR RA
BECMG 1507/1509 4000 HZ
TEMPO 1509/1512 FEW035CB
BECMG 1515/1517 2500 BR -RA

Example: see airport list